createdAt,value
2022-11-21T00:01:56.785Z,19.54
2022-11-21T00:04:59.283Z,19.55
2022-11-21T00:08:01.344Z,19.52
2022-11-21T00:11:03.503Z,19.58
2022-11-21T00:14:05.702Z,19.57
2022-11-21T00:17:08.777Z,19.58
2022-11-21T00:20:11.942Z,19.51
2022-11-21T00:23:14.272Z,19.35
2022-11-21T00:26:17.512Z,19.28
2022-11-21T00:29:20.939Z,19.17
2022-11-21T00:32:23.378Z,19.17
2022-11-21T00:35:25.838Z,19.08
2022-11-21T00:38:27.795Z,19.06
2022-11-21T00:41:30.971Z,18.99
2022-11-21T00:44:33.040Z,18.94
2022-11-21T00:47:35.992Z,18.91
2022-11-21T00:50:38.131Z,18.86
2022-11-21T00:53:40.770Z,18.81
2022-11-21T00:56:43.092Z,18.79
2022-11-21T00:59:45.855Z,18.80
2022-11-21T01:02:47.730Z,18.79
2022-11-21T01:05:50.118Z,18.69
2022-11-21T01:08:52.264Z,18.64
2022-11-21T01:11:56.015Z,18.61
2022-11-21T01:14:58.121Z,18.63
2022-11-21T01:18:00.880Z,18.64
2022-11-21T01:21:05.896Z,18.61
2022-11-21T01:24:11.814Z,18.59
2022-11-21T01:27:13.899Z,18.55
2022-11-21T01:30:16.494Z,18.42
2022-11-21T01:33:18.695Z,18.35
2022-11-21T01:36:27.408Z,18.35
2022-11-21T01:39:29.735Z,18.32
2022-11-21T01:43:02.731Z,18.28
2022-11-21T01:46:05.145Z,18.35
2022-11-21T01:49:29.602Z,18.35
2022-11-21T01:52:33.301Z,18.32
2022-11-21T01:55:36.734Z,18.30
2022-11-21T01:58:40.908Z,18.30
2022-11-21T02:01:44.956Z,18.28
2022-11-21T02:04:47.341Z,18.25
2022-11-21T02:07:54.327Z,18.22
2022-11-21T02:11:15.001Z,18.22
2022-11-21T02:14:18.254Z,18.21
2022-11-21T02:17:20.611Z,18.21
2022-11-21T02:20:25.981Z,18.16
2022-11-21T02:24:01.121Z,18.16
2022-11-21T02:27:04.299Z,18.13
2022-11-21T02:30:09.250Z,18.12
2022-11-21T02:33:13.664Z,18.12
2022-11-21T02:36:41.163Z,18.12
2022-11-21T02:39:46.190Z,18.10
2022-11-21T02:43:13.392Z,18.12
2022-11-21T02:46:16.035Z,18.10
2022-11-21T02:49:27.421Z,18.10
2022-11-21T02:52:29.844Z,18.08
2022-11-21T02:55:32.687Z,18.09
2022-11-21T02:58:36.201Z,18.06
2022-11-21T03:01:38.285Z,18.04
2022-11-21T03:04:40.921Z,18.06
2022-11-21T03:07:42.981Z,18.04
2022-11-21T03:10:45.485Z,18.05
2022-11-21T03:13:47.739Z,18.06
2022-11-21T03:16:50.959Z,18.02
2022-11-21T03:19:53.062Z,18.02
2022-11-21T03:22:55.356Z,18.02
2022-11-21T03:25:59.281Z,17.98
2022-11-21T03:29:01.922Z,17.99
2022-11-21T03:32:04.685Z,17.95
2022-11-21T03:35:08.240Z,17.96
2022-11-21T03:38:11.295Z,17.95
2022-11-21T03:41:32.152Z,17.92
2022-11-21T03:44:34.057Z,17.89
2022-11-21T03:47:36.560Z,17.89
2022-11-21T03:50:39.018Z,17.88
2022-11-21T03:53:41.406Z,17.82
2022-11-21T03:56:43.841Z,17.84
2022-11-21T03:59:46.753Z,17.85
2022-11-21T04:02:49.119Z,17.88
2022-11-21T04:05:51.470Z,17.86
2022-11-21T04:08:53.926Z,17.89
2022-11-21T04:11:57.085Z,17.86
2022-11-21T04:14:59.740Z,17.86
2022-11-21T04:18:02.327Z,17.89
2022-11-21T04:21:07.397Z,17.85
2022-11-21T04:24:10.693Z,17.88
2022-11-21T04:27:12.912Z,17.85
2022-11-21T04:30:16.628Z,17.86
2022-11-21T04:33:19.560Z,17.85
2022-11-21T04:36:22.206Z,17.86
2022-11-21T04:39:24.155Z,17.84
2022-11-21T04:42:26.489Z,17.86
2022-11-21T04:45:29.501Z,17.86
2022-11-21T04:48:32.964Z,17.86
2022-11-21T04:51:35.383Z,17.84
2022-11-21T04:54:37.845Z,17.82
2022-11-21T04:57:39.791Z,17.85
2022-11-21T05:00:42.298Z,17.84
2022-11-21T05:03:44.978Z,17.84
2022-11-21T05:06:47.236Z,17.82
2022-11-21T05:09:49.377Z,17.84
2022-11-21T05:13:20.419Z,17.84
2022-11-21T05:16:22.604Z,17.84
2022-11-21T05:19:24.923Z,17.85
2022-11-21T05:22:27.098Z,17.85
2022-11-21T05:25:29.797Z,17.84
2022-11-21T05:28:31.716Z,17.86
2022-11-21T05:31:34.206Z,17.85
2022-11-21T05:34:36.715Z,17.85
2022-11-21T05:37:39.708Z,17.84
2022-11-21T05:40:42.250Z,17.88
2022-11-21T05:43:47.616Z,17.86
2022-11-21T05:46:50.112Z,17.85
2022-11-21T05:49:52.445Z,17.84
2022-11-21T05:52:54.571Z,17.86
2022-11-21T05:56:01.388Z,17.84
2022-11-21T05:59:04.126Z,17.85
2022-11-21T06:02:25.070Z,17.86
2022-11-21T06:05:27.147Z,17.89
2022-11-21T06:08:31.009Z,17.86
2022-11-21T06:11:33.373Z,17.89
2022-11-21T06:14:35.907Z,17.92
2022-11-21T06:17:38.505Z,17.85
2022-11-21T06:20:41.740Z,17.82
2022-11-21T06:23:45.105Z,17.81
2022-11-21T06:26:47.433Z,17.82
2022-11-21T06:29:49.627Z,17.79
2022-11-21T06:32:52.369Z,17.81
2022-11-21T06:35:54.380Z,17.81
2022-11-21T06:38:57.064Z,17.77
2022-11-21T06:41:59.904Z,17.79
2022-11-21T06:45:02.432Z,17.79
2022-11-21T06:48:04.824Z,17.79
2022-11-21T06:51:11.731Z,17.79
2022-11-21T06:54:16.759Z,17.79
2022-11-21T06:57:20.130Z,17.85
2022-11-21T07:00:22.484Z,17.85
2022-11-21T07:03:25.220Z,17.88
2022-11-21T07:06:27.420Z,17.88
2022-11-21T07:09:34.232Z,17.86
2022-11-21T07:12:55.298Z,17.85
2022-11-21T07:16:14.638Z,17.86
2022-11-21T07:19:16.595Z,17.88
2022-11-21T07:22:19.792Z,17.85
2022-11-21T07:25:23.099Z,17.85
2022-11-21T07:28:25.489Z,17.85
2022-11-21T07:31:27.505Z,17.84
2022-11-21T07:34:30.070Z,17.84
2022-11-21T07:37:32.785Z,17.85
2022-11-21T07:40:35.082Z,17.79
2022-11-21T07:43:37.377Z,17.82
2022-11-21T07:46:39.902Z,17.81
2022-11-21T07:49:42.042Z,17.84
2022-11-21T07:52:44.317Z,17.82
2022-11-21T07:55:46.360Z,17.85
2022-11-21T07:58:51.836Z,17.84
2022-11-21T08:01:53.978Z,17.86
2022-11-21T08:04:57.479Z,17.94
2022-11-21T08:08:00.121Z,18.06
2022-11-21T08:11:05.815Z,18.13
2022-11-21T08:14:07.931Z,18.18
2022-11-21T08:17:10.511Z,18.13
2022-11-21T08:20:12.704Z,18.25
2022-11-21T08:23:17.058Z,18.33
2022-11-21T08:26:19.464Z,18.37
2022-11-21T08:29:21.937Z,18.45
2022-11-21T08:32:23.999Z,18.50
2022-11-21T08:35:27.745Z,18.50
2022-11-21T08:38:29.873Z,18.52
2022-11-21T08:41:51.500Z,18.60
2022-11-21T08:44:53.774Z,18.57
2022-11-21T08:47:56.179Z,18.63
2022-11-21T08:50:58.543Z,18.63
2022-11-21T08:54:00.928Z,18.63
2022-11-21T08:57:03.319Z,18.70
2022-11-21T09:00:07.679Z,18.77
2022-11-21T09:03:09.722Z,18.81
2022-11-21T09:06:13.558Z,18.80
2022-11-21T09:09:19.365Z,18.87
2022-11-21T09:12:25.115Z,18.96
2022-11-21T09:15:46.104Z,19.03
2022-11-21T09:18:51.866Z,19.07
2022-11-21T09:21:54.144Z,19.10
2022-11-21T09:24:56.829Z,19.08
2022-11-21T09:28:01.316Z,19.11
2022-11-21T09:31:05.561Z,19.12
2022-11-21T09:34:08.138Z,19.21
2022-11-21T09:37:10.954Z,19.27
2022-11-21T09:40:17.169Z,19.28
2022-11-21T09:43:38.393Z,19.32
2022-11-21T09:46:47.471Z,19.35
2022-11-21T09:49:55.569Z,19.36
2022-11-21T09:52:57.881Z,19.39
2022-11-21T09:56:06.621Z,19.41
2022-11-21T09:59:34.320Z,19.45
2022-11-21T10:02:37.076Z,19.47
2022-11-21T10:05:48.856Z,19.48
2022-11-21T10:09:13.525Z,19.55
2022-11-21T10:12:42.968Z,19.52
2022-11-21T10:15:57.800Z,19.51
2022-11-21T10:19:06.059Z,19.45
2022-11-21T10:22:41.147Z,19.51
2022-11-21T10:25:51.191Z,19.55
2022-11-21T10:29:05.283Z,19.55
2022-11-21T10:32:25.456Z,19.54
2022-11-21T10:35:38.416Z,19.61
2022-11-21T10:38:43.574Z,19.48
2022-11-21T10:41:59.268Z,19.35
2022-11-21T10:45:19.577Z,19.32
2022-11-21T10:48:22.368Z,19.28
2022-11-21T10:51:43.988Z,19.25
2022-11-21T10:55:04.999Z,19.21
2022-11-21T10:58:19.408Z,19.18
2022-11-21T11:01:35.877Z,19.14
2022-11-21T11:04:47.393Z,19.12
2022-11-21T11:08:08.185Z,19.10
2022-11-21T11:11:15.625Z,19.00
2022-11-21T11:14:30.904Z,19.03
2022-11-21T11:17:34.900Z,19.01
2022-11-21T11:20:45.920Z,19.03
2022-11-21T11:23:53.019Z,18.99
2022-11-21T11:27:03.186Z,18.97
2022-11-21T11:30:07.571Z,18.94
2022-11-21T11:33:31.877Z,18.90
2022-11-21T11:36:44.827Z,18.94
2022-11-21T11:40:06.613Z,19.06
2022-11-21T11:43:33.326Z,19.12
2022-11-21T11:47:03.207Z,19.20
2022-11-21T11:50:13.445Z,19.22
2022-11-21T11:53:22.949Z,19.24
2022-11-21T11:56:33.237Z,19.27
2022-11-21T11:59:44.410Z,19.28
2022-11-21T12:03:00.400Z,19.45
2022-11-21T12:06:22.020Z,19.47
2022-11-21T12:09:33.021Z,19.44
2022-11-21T12:12:40.310Z,19.51
2022-11-21T12:15:50.930Z,19.48
2022-11-21T12:19:00.922Z,19.58
2022-11-21T12:22:06.677Z,19.63
2022-11-21T12:25:13.438Z,19.66
2022-11-21T12:28:35.246Z,19.69
2022-11-21T12:31:52.852Z,19.73
2022-11-21T12:35:47.338Z,19.72
2022-11-21T12:39:09.781Z,19.65
2022-11-21T12:42:42.390Z,19.69
2022-11-21T12:45:47.740Z,19.69
2022-11-21T12:49:35.798Z,19.75
2022-11-21T12:53:01.040Z,19.75
2022-11-21T12:56:07.807Z,19.78
2022-11-21T12:59:14.411Z,19.81
2022-11-21T13:02:22.558Z,19.76
2022-11-21T13:05:33.278Z,19.79
2022-11-21T13:08:37.361Z,19.90
2022-11-21T13:12:21.510Z,19.90
2022-11-21T13:15:38.371Z,19.90
2022-11-21T13:18:44.594Z,19.96
2022-11-21T13:21:49.704Z,19.95
2022-11-21T13:24:52.348Z,19.95
2022-11-21T13:27:55.026Z,20.00
2022-11-21T13:30:58.269Z,19.97
2022-11-21T13:34:02.326Z,19.97
2022-11-21T13:37:08.561Z,20.03
2022-11-21T13:40:33.818Z,20.05
2022-11-21T13:43:37.883Z,19.99
2022-11-21T13:47:00.300Z,20.00
2022-11-21T13:50:29.096Z,19.97
2022-11-21T13:53:57.568Z,19.93
2022-11-21T13:57:18.920Z,19.89
2022-11-21T14:00:47.549Z,19.89
2022-11-21T14:04:01.862Z,19.87
2022-11-21T14:07:24.324Z,19.92
2022-11-21T14:10:34.444Z,19.95
2022-11-21T14:13:38.695Z,19.99
2022-11-21T14:16:47.146Z,19.96
2022-11-21T14:19:49.777Z,20.02
2022-11-21T14:22:57.407Z,20.00
2022-11-21T14:26:05.953Z,20.03
2022-11-21T14:29:40.391Z,20.03
2022-11-21T14:32:42.392Z,19.96
2022-11-21T14:36:08.458Z,19.95
2022-11-21T14:47:25.319Z,19.92
2022-11-21T14:50:34.905Z,20.03
2022-11-21T14:53:41.698Z,20.15
2022-11-21T14:56:48.905Z,20.02
2022-11-21T14:59:52.623Z,20.05
2022-11-21T15:02:58.409Z,19.90
2022-11-21T15:06:08.184Z,19.90
2022-11-21T15:10:26.197Z,20.08
2022-11-21T15:12:48.265Z,20.12
2022-11-21T15:15:54.344Z,20.19
2022-11-21T15:18:57.105Z,20.19
2022-11-21T15:22:02.626Z,20.17
2022-11-21T15:25:23.527Z,20.13
2022-11-21T15:28:26.986Z,19.92
2022-11-21T15:31:29.087Z,19.78
2022-11-21T15:37:57.455Z,19.62
2022-11-21T15:41:11.726Z,19.59
2022-11-21T15:44:22.340Z,19.54
2022-11-21T15:47:27.428Z,19.50
2022-11-21T15:50:31.452Z,19.45
2022-11-21T15:53:47.011Z,19.45
2022-11-21T15:56:54.442Z,19.42
2022-11-21T15:57:13.499Z,19.68
2022-11-21T16:00:00.516Z,19.38
2022-11-21T16:03:17.589Z,19.36
2022-11-21T16:06:26.749Z,19.38
2022-11-21T16:09:32.713Z,19.32
2022-11-21T16:12:38.477Z,19.34
2022-11-21T16:15:46.893Z,19.30
2022-11-21T16:18:57.277Z,19.20
2022-11-21T16:22:06.699Z,19.34
2022-11-21T16:25:43.527Z,19.42
2022-11-21T16:28:50.013Z,19.48
2022-11-21T16:31:57.867Z,19.52
2022-11-21T16:35:04.715Z,19.58
2022-11-21T16:38:14.831Z,19.62
2022-11-21T16:41:24.133Z,19.66
2022-11-21T16:44:34.051Z,19.66
2022-11-21T16:47:43.104Z,19.71
2022-11-21T16:50:51.397Z,19.61
2022-11-21T16:53:55.647Z,19.50
2022-11-21T16:56:58.995Z,19.41
2022-11-21T17:00:02.757Z,19.35
2022-11-21T17:03:06.765Z,19.34
2022-11-21T17:06:11.220Z,19.27
2022-11-21T17:09:15.605Z,19.24
2022-11-21T17:12:18.287Z,19.12
2022-11-21T17:15:22.216Z,19.11
2022-11-21T17:18:26.456Z,19.08
2022-11-21T17:21:34.903Z,19.01
2022-11-21T17:24:39.160Z,19.03
2022-11-21T17:27:42.598Z,18.97
2022-11-21T17:30:46.298Z,18.96
2022-11-21T17:33:54.579Z,18.96
2022-11-21T17:36:57.684Z,18.99
2022-11-21T17:40:01.855Z,18.93
2022-11-21T17:43:04.410Z,18.87
2022-11-21T17:46:18.292Z,18.87
2022-11-21T17:49:21.911Z,18.89
2022-11-21T17:52:24.972Z,18.89
2022-11-21T17:55:29.173Z,18.90
2022-11-21T17:58:33.387Z,18.87
2022-11-21T18:01:38.108Z,18.84
2022-11-21T18:04:41.923Z,18.84
2022-11-21T18:07:44.508Z,18.81
2022-11-21T18:10:53.906Z,18.83
2022-11-21T18:13:56.410Z,18.79
2022-11-21T18:16:59.671Z,18.80
2022-11-21T18:20:02.106Z,18.77
2022-11-21T18:23:06.077Z,18.77
2022-11-21T18:26:16.059Z,18.79
2022-11-21T18:29:40.248Z,18.73
2022-11-21T18:32:52.150Z,18.73
2022-11-21T18:35:55.491Z,18.70
2022-11-21T18:39:05.927Z,18.70
2022-11-21T18:42:12.266Z,18.70
2022-11-21T18:45:16.418Z,18.70
2022-11-21T18:48:19.675Z,18.70
2022-11-21T18:51:27.066Z,18.63
2022-11-21T18:54:39.481Z,18.63
2022-11-21T18:57:48.367Z,18.61
2022-11-21T19:00:52.407Z,18.60
2022-11-21T19:13:29.714Z,18.50
2022-11-21T19:16:34.646Z,18.53
2022-11-21T19:19:37.415Z,18.53
2022-11-21T19:26:11.255Z,18.47
2022-11-21T19:29:14.730Z,18.43
2022-11-21T19:32:17.448Z,18.40
2022-11-21T19:35:23.892Z,18.40
2022-11-21T19:38:53.506Z,18.46
2022-11-21T19:41:56.206Z,18.37
2022-11-21T19:45:00.004Z,18.45
2022-11-21T19:48:02.381Z,18.45
2022-11-21T19:51:06.545Z,18.43
2022-11-21T19:54:13.577Z,18.55
2022-11-21T20:01:36.567Z,18.57
2022-11-21T20:04:44.145Z,18.70
2022-11-21T20:07:47.021Z,18.86
2022-11-21T20:10:49.616Z,18.96
2022-11-21T20:13:52.786Z,19.01
2022-11-21T20:16:57.033Z,19.06
2022-11-21T20:20:00.114Z,19.07
2022-11-21T20:23:03.517Z,19.11
2022-11-21T20:26:08.933Z,19.14
2022-11-21T20:29:15.291Z,19.15
2022-11-21T20:32:18.668Z,19.12
2022-11-21T20:35:22.343Z,19.11
2022-11-21T20:38:25.331Z,19.20
2022-11-21T20:41:30.995Z,19.30
2022-11-21T20:47:57.127Z,19.36
2022-11-21T20:52:09.531Z,19.24
2022-11-21T20:54:22.724Z,19.12
2022-11-21T20:57:28.520Z,19.15
2022-11-21T21:00:32.550Z,19.12
2022-11-21T21:03:36.741Z,19.04
2022-11-21T21:06:39.933Z,18.99
2022-11-21T21:09:43.368Z,18.99
2022-11-21T21:12:48.717Z,18.94
2022-11-21T21:15:52.106Z,18.93
2022-11-21T21:18:56.005Z,18.87
2022-11-21T21:21:58.435Z,18.87
2022-11-21T21:25:01.934Z,18.84
2022-11-21T21:28:07.111Z,18.83
2022-11-21T21:31:30.950Z,18.69
2022-11-21T21:34:33.446Z,18.67
2022-11-21T21:37:36.147Z,18.74
2022-11-21T21:40:38.696Z,18.74
2022-11-21T21:43:43.641Z,18.70
2022-11-21T21:46:46.476Z,18.70
2022-11-21T21:49:51.247Z,18.66
2022-11-21T21:52:53.775Z,18.61
2022-11-21T21:56:00.877Z,18.79
2022-11-21T21:59:03.162Z,18.76
2022-11-21T22:02:05.886Z,18.96
2022-11-21T22:05:08.336Z,19.08
2022-11-21T22:08:11.560Z,19.04
2022-11-21T22:11:29.397Z,19.07
2022-11-21T22:14:31.938Z,19.17
2022-11-21T22:17:34.750Z,19.21
2022-11-21T22:20:37.988Z,19.22
2022-11-21T22:24:02.397Z,19.22
2022-11-21T22:27:03.801Z,19.35
2022-11-21T22:30:16.495Z,19.39
2022-11-21T22:33:19.400Z,19.36
2022-11-21T22:36:21.816Z,19.41
2022-11-21T22:39:25.723Z,19.38
2022-11-21T22:42:28.312Z,19.45
2022-11-21T22:45:30.904Z,19.48
2022-11-21T22:49:01.008Z,19.50
2022-11-21T22:52:04.013Z,19.57
2022-11-21T22:55:06.890Z,19.57
2022-11-21T22:58:10.088Z,19.65
2022-11-21T23:01:14.926Z,19.69
2022-11-21T23:04:22.052Z,19.68
2022-11-21T23:07:24.796Z,19.73
2022-11-21T23:10:27.524Z,19.75
2022-11-21T23:13:29.761Z,19.73
2022-11-21T23:16:32.307Z,19.78
2022-11-21T23:19:35.076Z,19.82
2022-11-21T23:22:37.919Z,19.82
2022-11-21T23:25:40.659Z,19.83
2022-11-21T23:28:52.951Z,19.86
2022-11-21T23:31:57.015Z,19.87
2022-11-21T23:34:59.605Z,19.89
2022-11-21T23:38:02.024Z,19.95
2022-11-21T23:41:04.569Z,19.95
2022-11-21T23:44:07.027Z,19.89
2022-11-21T23:47:09.340Z,19.93
2022-11-21T23:50:11.329Z,19.93
2022-11-21T23:53:14.407Z,19.92
2022-11-21T23:56:16.786Z,19.96
2022-11-21T23:59:19.225Z,19.95
